NCAR-RAP Real-Time Weather Data

Output produced by METARs form (30 April 2017  15:03 UTC)
found at http://weather.rap.ucar.edu/surface/
 
Conditions at: KPIE observed 30 April 2017  14:53 UTC
Temperature: 27.8°C (82°F)
Dewpoint: 20.0°C (68°F) [RH = 63%]
Pressure (altimeter): 30.08 inches Hg (1018.7 mb)
[Sea-level pressure: 1018.6 mb]
Winds: from the SE (130 degrees) at 21 MPH (18 knots; 9.4 m/s)
gusting to 29 MPH (25 knots; 13.0 m/s)
Visibility: 10 or more miles (16+ km)
Ceiling: at least 12,000 feet AGL
Clouds: few clouds at 2400 feet AGL
Present Weather: no significant weather observed at this time
KPIE 301453Z 13018G25KT 10SM FEW024 28/20 A3008 RMK AO2 PK WND 13026/1437 SLP186 T02780200 55005

Conditions at: KPIE observed 30 April 2017  13:53 UTC
Temperature: 27.2°C (81°F)
Dewpoint: 20.6°C (69°F) [RH = 67%]
Pressure (altimeter): 30.07 inches Hg (1018.4 mb)
[Sea-level pressure: 1018.2 mb]
Winds: from the SE (140 degrees) at 18 MPH (16 knots; 8.3 m/s)
gusting to 28 MPH (24 knots; 12.5 m/s)
Visibility: 10 or more miles (16+ km)
Ceiling: at least 12,000 feet AGL
Clouds: few clouds at 1800 feet AGL
Present Weather: no significant weather observed at this time
KPIE 301353Z 14016G24KT 10SM FEW018 27/21 A3007 RMK AO2 PK WND 14027/1322 SLP182 T02720206

Conditions at: KPIE observed 30 April 2017  12:53 UTC
Temperature: 24.4°C (76°F)
Dewpoint: 21.1°C (70°F) [RH = 82%]
Pressure (altimeter): 30.09 inches Hg (1019.0 mb)
[Sea-level pressure: 1018.7 mb]
Winds: from the SE (140 degrees) at 17 MPH (15 knots; 7.8 m/s)
gusting to 23 MPH (20 knots; 10.4 m/s)
Visibility: 10 or more miles (16+ km)
Ceiling: at least 12,000 feet AGL
Clouds: sky clear below 12,000 feet AGL
Present Weather: no significant weather observed at this time
KPIE 301253Z 14015G20KT 10SM CLR 24/21 A3009 RMK AO2 SLP187 T02440211

Conditions at: KPIE observed 30 April 2017  11:53 UTC
Temperature: 24.4°C (76°F)
Dewpoint: 21.1°C (70°F) [RH = 82%]
Pressure (altimeter): 30.09 inches Hg (1019.0 mb)
[Sea-level pressure: 1019.0 mb]
Winds: from the SE (130 degrees) at 15 MPH (13 knots; 6.8 m/s)
gusting to 24 MPH (21 knots; 10.9 m/s)
Visibility: 10 or more miles (16+ km)
Ceiling: at least 12,000 feet AGL
Clouds: few clouds at 1600 feet AGL
scattered clouds at 3300 feet AGL
Present Weather: no significant weather observed at this time
KPIE 301153Z 13013G21KT 10SM FEW016 SCT033 24/21 A3009 RMK AO2 SLP190 T02440211 10244 20239 50006

Conditions at: KPIE observed 30 April 2017  10:53 UTC
Temperature: 24.4°C (76°F)
Dewpoint: 21.1°C (70°F) [RH = 82%]
Pressure (altimeter): 30.10 inches Hg (1019.4 mb)
[Sea-level pressure: 1019.1 mb]
Winds: from the SE (130 degrees) at 15 MPH (13 knots; 6.8 m/s)
Visibility: 10 or more miles (16+ km)
Ceiling: at least 12,000 feet AGL
Clouds: few clouds at 1600 feet AGL
few clouds at 2800 feet AGL
scattered clouds at 7000 feet AGL
Present Weather: automated observation with no human augmentation;
there may or may not be significant weather present at this time
KPIE 301053Z AUTO 13013KT 10SM FEW016 FEW028 SCT070 24/21 A3010 RMK AO2 SLP191 T02440211

Conditions at: KPIE observed 30 April 2017  09:53 UTC
Temperature: 23.9°C (75°F)
Dewpoint: 21.1°C (70°F) [RH = 84%]
Pressure (altimeter): 30.09 inches Hg (1019.0 mb)
[Sea-level pressure: 1018.7 mb]
Winds: from the SE (130 degrees) at 12 MPH (10 knots; 5.2 m/s)
Visibility: 10 or more miles (16+ km)
Ceiling: 6000 feet AGL
Clouds: few clouds at 1600 feet AGL
broken clouds at 6000 feet AGL
Present Weather: automated observation with no human augmentation;
there may or may not be significant weather present at this time
KPIE 300953Z AUTO 13010KT 10SM FEW016 BKN060 24/21 A3009 RMK AO2 SLP187 T02390211

Conditions at: KPIE observed 30 April 2017  08:53 UTC
Temperature: 23.9°C (75°F)
Dewpoint: 21.1°C (70°F) [RH = 84%]
Pressure (altimeter): 30.08 inches Hg (1018.7 mb)
[Sea-level pressure: 1018.5 mb]
Winds: from the ESE (120 degrees) at 10 MPH (9 knots; 4.7 m/s)
Visibility: 10 or more miles (16+ km)
Ceiling: at least 12,000 feet AGL
Clouds: few clouds at 6000 feet AGL
Present Weather: automated observation with no human augmentation;
there may or may not be significant weather present at this time
KPIE 300853Z AUTO 12009KT 10SM FEW060 24/21 A3008 RMK AO2 SLP185 T02390211 55000

Conditions at: KPIE observed 30 April 2017  07:53 UTC
Temperature: 23.9°C (75°F)
Dewpoint: 20.6°C (69°F) [RH = 82%]
Pressure (altimeter): 30.07 inches Hg (1018.4 mb)
[Sea-level pressure: 1018.2 mb]
Winds: from the SE (130 degrees) at 13 MPH (11 knots; 5.7 m/s)
Visibility: 10 or more miles (16+ km)
Ceiling: at least 12,000 feet AGL
Clouds: sky clear below 12,000 feet AGL
Present Weather: automated observation with no human augmentation;
there may or may not be significant weather present at this time
KPIE 300753Z AUTO 13011KT 10SM CLR 24/21 A3007 RMK AO2 SLP182 T02390206

Conditions at: KPIE observed 30 April 2017  06:53 UTC
Temperature: 23.9°C (75°F)
Dewpoint: 20.6°C (69°F) [RH = 82%]
Pressure (altimeter): 30.07 inches Hg (1018.4 mb)
[Sea-level pressure: 1018.3 mb]
Winds: from the SE (130 degrees) at 12 MPH (10 knots; 5.2 m/s)
Visibility: 10 or more miles (16+ km)
Ceiling: at least 12,000 feet AGL
Clouds: sky clear below 12,000 feet AGL
Present Weather: automated observation with no human augmentation;
there may or may not be significant weather present at this time
KPIE 300653Z AUTO 13010KT 10SM CLR 24/21 A3007 RMK AO2 SLP183 T02390206

Conditions at: KPIE observed 30 April 2017  05:53 UTC
Temperature: 24.4°C (76°F)
Dewpoint: 19.4°C (67°F) [RH = 74%]
Pressure (altimeter): 30.08 inches Hg (1018.7 mb)
[Sea-level pressure: 1018.5 mb]
Winds: from the ESE (120 degrees) at 14 MPH (12 knots; 6.2 m/s)
Visibility: 10 or more miles (16+ km)
Ceiling: at least 12,000 feet AGL
Clouds: sky clear below 12,000 feet AGL
Present Weather: automated observation with no human augmentation;
there may or may not be significant weather present at this time
KPIE 300553Z AUTO 12012KT 10SM CLR 24/19 A3008 RMK AO2 SLP185 T02440194 10283 20244 58004

Conditions at: KPIE observed 30 April 2017  04:53 UTC
Temperature: 25.0°C (77°F)
Dewpoint: 18.9°C (66°F) [RH = 69%]
Pressure (altimeter): 30.08 inches Hg (1018.7 mb)
[Sea-level pressure: 1018.7 mb]
Winds: from the ESE (120 degrees) at 13 MPH (11 knots; 5.7 m/s)
Visibility: 10 or more miles (16+ km)
Ceiling: at least 12,000 feet AGL
Clouds: sky clear below 12,000 feet AGL
Present Weather: automated observation with no human augmentation;
there may or may not be significant weather present at this time
KPIE 300453Z AUTO 12011KT 10SM CLR 25/19 A3008 RMK AO2 SLP187 T02500189 403500239

Conditions at: KPIE observed 30 April 2017  03:53 UTC
Temperature: 26.1°C (79°F)
Dewpoint: 18.9°C (66°F) [RH = 65%]
Pressure (altimeter): 30.09 inches Hg (1019.0 mb)
[Sea-level pressure: 1018.9 mb]
Winds: from the ESE (120 degrees) at 14 MPH (12 knots; 6.2 m/s)
Visibility: 10 or more miles (16+ km)
Ceiling: at least 12,000 feet AGL
Clouds: sky clear below 12,000 feet AGL
Present Weather: automated observation with no human augmentation;
there may or may not be significant weather present at this time
KPIE 300353Z AUTO 12012KT 10SM CLR 26/19 A3009 RMK AO2 SLP189 T02610189

Conditions at: KPIE observed 30 April 2017  02:53 UTC
Temperature: 26.7°C (80°F)
Dewpoint: 17.8°C (64°F) [RH = 58%]
Pressure (altimeter): 30.09 inches Hg (1019.0 mb)
[Sea-level pressure: 1018.9 mb]
Winds: from the SE (130 degrees) at 16 MPH (14 knots; 7.3 m/s)
Visibility: 10 or more miles (16+ km)
Ceiling: at least 12,000 feet AGL
Clouds: sky clear below 12,000 feet AGL
Present Weather: automated observation with no human augmentation;
there may or may not be significant weather present at this time
KPIE 300253Z AUTO 13014KT 10SM CLR 27/18 A3009 RMK AO2 SLP189 T02670178 51016

Conditions at: KPIE observed 30 April 2017  01:53 UTC
Temperature: 27.2°C (81°F)
Dewpoint: 18.9°C (66°F) [RH = 61%]
Pressure (altimeter): 30.08 inches Hg (1018.7 mb)
[Sea-level pressure: 1018.5 mb]
Winds: from the SE (130 degrees) at 12 MPH (10 knots; 5.2 m/s)
gusting to 17 MPH (15 knots; 7.8 m/s)
Visibility: 10 or more miles (16+ km)
Ceiling: at least 12,000 feet AGL
Clouds: sky clear below 12,000 feet AGL
Present Weather: no significant weather observed at this time
KPIE 300153Z 13010G15KT 10SM CLR 27/19 A3008 RMK AO2 SLP185 T02720189

Conditions at: KPIE observed 30 April 2017  00:53 UTC
Temperature: 26.7°C (80°F)
Dewpoint: 19.4°C (67°F) [RH = 64%]
Pressure (altimeter): 30.06 inches Hg (1018.0 mb)
[Sea-level pressure: 1017.8 mb]
Winds: calm
Visibility: 10 or more miles (16+ km)
Ceiling: at least 12,000 feet AGL
Clouds: sky clear below 12,000 feet AGL
Present Weather: no significant weather observed at this time
KPIE 300053Z 00000KT 10SM CLR 27/19 A3006 RMK AO2 SLP178 T02670194

Conditions at: KPIE observed 29 April 2017  23:53 UTC
Temperature: 28.3°C (83°F)
Dewpoint: 19.4°C (67°F) [RH = 59%]
Pressure (altimeter): 30.05 inches Hg (1017.7 mb)
[Sea-level pressure: 1017.4 mb]
Winds: from the SW (230 degrees) at 8 MPH (7 knots; 3.6 m/s)
Visibility: 10 or more miles (16+ km)
Ceiling: at least 12,000 feet AGL
Clouds: sky clear below 12,000 feet AGL
Present Weather: no significant weather observed at this time
KPIE 292353Z 23007KT 10SM CLR 28/19 A3005 RMK AO2 SLP174 T02830194 10350 20283 53004

Conditions at: KPIE observed 29 April 2017  22:53 UTC
Temperature: 30.6°C (87°F)
Dewpoint: 20.0°C (68°F) [RH = 53%]
Pressure (altimeter): 30.03 inches Hg (1017.0 mb)
[Sea-level pressure: 1016.9 mb]
Winds: from the WSW (240 degrees) at 12 MPH (10 knots; 5.2 m/s)
Visibility: 10 or more miles (16+ km)
Ceiling: at least 12,000 feet AGL
Clouds: sky clear below 12,000 feet AGL
Present Weather: no significant weather observed at this time
KPIE 292253Z 24010KT 10SM CLR 31/20 A3003 RMK AO2 SLP169 T03060200

Conditions at: KPIE observed 29 April 2017  21:53 UTC
Temperature: 33.3°C (92°F)
Dewpoint: 15.0°C (59°F) [RH = 33%]
Pressure (altimeter): 30.03 inches Hg (1017.0 mb)
[Sea-level pressure: 1016.8 mb]
Winds: from the SSE (150 degrees) at 14 MPH (12 knots; 6.2 m/s)
gusting to 23 MPH (20 knots; 10.4 m/s)
Visibility: 10 or more miles (16+ km)
Ceiling: at least 12,000 feet AGL
Clouds: sky clear below 12,000 feet AGL
Present Weather: no significant weather observed at this time
KPIE 292153Z 15012G20KT 10SM CLR 33/15 A3003 RMK AO2 SLP168 T03330150

Conditions at: KPIE observed 29 April 2017  20:53 UTC
Temperature: 33.3°C (92°F)
Dewpoint: 15.0°C (59°F) [RH = 33%]
Pressure (altimeter): 30.03 inches Hg (1017.0 mb)
[Sea-level pressure: 1017.0 mb]
Winds: from the ESE (110 degrees) at 16 MPH (14 knots; 7.3 m/s)
Visibility: 10 or more miles (16+ km)
Ceiling: at least 12,000 feet AGL
Clouds: few clouds at 8000 feet AGL
few clouds at 9000 feet AGL
Present Weather: no significant weather observed at this time
KPIE 292053Z 11014KT 10SM FEW080 FEW090 33/15 A3003 RMK AO2 SLP170 T03330150 56021

Conditions at: KPIE observed 29 April 2017  19:53 UTC
Temperature: 34.4°C (94°F)
Dewpoint: 15.0°C (59°F) [RH = 31%]
Pressure (altimeter): 30.05 inches Hg (1017.7 mb)
[Sea-level pressure: 1017.4 mb]
Winds: from the ESE (120 degrees) at 13 MPH (11 knots; 5.7 m/s)
gusting to 22 MPH (19 knots; 9.9 m/s)
Visibility: 10 or more miles (16+ km)
Ceiling: at least 12,000 feet AGL
Clouds: sky clear below 12,000 feet AGL
Present Weather: no significant weather observed at this time
KPIE 291953Z 12011G19KT 10SM CLR 34/15 A3005 RMK AO2 SLP174 T03440150

Conditions at: KPIE observed 29 April 2017  18:53 UTC
Temperature: 34.4°C (94°F)
Dewpoint: 17.2°C (63°F) [RH = 36%]
Pressure (altimeter): 30.07 inches Hg (1018.4 mb)
[Sea-level pressure: 1018.3 mb]
Winds: from the ESE (110 degrees) at 14 MPH (12 knots; 6.2 m/s)
gusting to 21 MPH (18 knots; 9.4 m/s)
Visibility: 10 or more miles (16+ km)
Ceiling: at least 12,000 feet AGL
Clouds: sky clear below 12,000 feet AGL
Present Weather: automated observation with no human augmentation;
there may or may not be significant weather present at this time
KPIE 291853Z AUTO 11012G18KT 10SM CLR 34/17 A3007 RMK AO2 SLP183 T03440172

Conditions at: KPIE observed 29 April 2017  17:53 UTC
Temperature: 33.3°C (92°F)
Dewpoint: 17.8°C (64°F) [RH = 40%]
Pressure (altimeter): 30.10 inches Hg (1019.4 mb)
[Sea-level pressure: 1019.1 mb]
Winds: from the SE (130 degrees) at 13 MPH (11 knots; 5.7 m/s)
Visibility: 10 or more miles (16+ km)
Ceiling: at least 12,000 feet AGL
Clouds: scattered clouds at 5500 feet AGL
Present Weather: no significant weather observed at this time
KPIE 291753Z 13011KT 10SM SCT055 33/18 A3010 RMK AO2 SLP191 T03330178 10344 20250 58007

Conditions at: KPIE observed 29 April 2017  16:53 UTC
Temperature: 32.8°C (91°F)
Dewpoint: 18.3°C (65°F) [RH = 42%]
Pressure (altimeter): 30.11 inches Hg (1019.7 mb)
[Sea-level pressure: 1019.5 mb]
Winds: from the SE (130 degrees) at 15 MPH (13 knots; 6.8 m/s)
Visibility: 10 or more miles (16+ km)
Ceiling: at least 12,000 feet AGL
Clouds: few clouds at 4700 feet AGL
Present Weather: no significant weather observed at this time
KPIE 291653Z 13013KT 10SM FEW047 33/18 A3011 RMK AO2 SLP195 T03280183

Conditions at: KPIE observed 29 April 2017  15:53 UTC
Temperature: 31.1°C (88°F)
Dewpoint: 20.0°C (68°F) [RH = 52%]
Pressure (altimeter): 30.11 inches Hg (1019.7 mb)
[Sea-level pressure: 1019.7 mb]
Winds: from the SE (140 degrees) at 20 MPH (17 knots; 8.8 m/s)
gusting to 25 MPH (22 knots; 11.4 m/s)
Visibility: 10 or more miles (16+ km)
Ceiling: at least 12,000 feet AGL
Clouds: scattered clouds at 3300 feet AGL
Present Weather: no significant weather observed at this time
KPIE 291553Z 14017G22KT 10SM SCT033 31/20 A3011 RMK AO2 SLP197 T03110200

Conditions at: KPIE observed 29 April 2017  15:00 UTC
Temperature: 29.4°C (85°F)
Dewpoint: 20.6°C (69°F) [RH = 59%]
Pressure (altimeter): 30.12 inches Hg (1020.1 mb)
Winds: from the SE (130 degrees) at 20 MPH (17 knots; 8.8 m/s)
gusting to 28 MPH (24 knots; 12.5 m/s)
Visibility: 10 or more miles (16+ km)
Ceiling: 3000 feet AGL
Clouds: few clouds at 2400 feet AGL
broken clouds at 3000 feet AGL
Present Weather: no significant weather observed at this time
KPIE 291500Z 13017G24KT 10SM FEW024 BKN030 29/21 A3012 RMK AO2 T02940206

Conditions at: KPIE observed 29 April 2017  14:53 UTC
Temperature: 28.9°C (84°F)
Dewpoint: 21.1°C (70°F) [RH = 63%]
Pressure (altimeter): 30.12 inches Hg (1020.1 mb)
[Sea-level pressure: 1019.8 mb]
Winds: from the SE (140 degrees) at 14 MPH (12 knots; 6.2 m/s)
gusting to 24 MPH (21 knots; 10.9 m/s)
Visibility: 10 or more miles (16+ km)
Ceiling: 2400 feet AGL
Clouds: broken clouds at 2400 feet AGL
Present Weather: no significant weather observed at this time
KPIE 291453Z 14012G21KT 10SM BKN024 29/21 A3012 RMK AO2 SLP198 T02890211 58001

Conditions at: KPIE observed 29 April 2017  13:53 UTC
Temperature: 27.2°C (81°F)
Dewpoint: 22.2°C (72°F) [RH = 74%]
Pressure (altimeter): 30.12 inches Hg (1020.1 mb)
[Sea-level pressure: 1020.0 mb]
Winds: from the SE (130 degrees) at 18 MPH (16 knots; 8.3 m/s)
Visibility: 10 or more miles (16+ km)
Ceiling: 1700 feet AGL
Clouds: broken clouds at 1700 feet AGL
Present Weather: no significant weather observed at this time
KPIE 291353Z 13016KT 10SM BKN017 27/22 A3012 RMK AO2 SLP200 T02720222

Conditions at: KPIE observed 29 April 2017  13:34 UTC
Temperature: 27.2°C (81°F)
Dewpoint: 22.2°C (72°F) [RH = 74%]
Pressure (altimeter): 30.12 inches Hg (1020.1 mb)
Winds: from the ESE (120 degrees) at 16 MPH (14 knots; 7.3 m/s)
gusting to 28 MPH (24 knots; 12.5 m/s)
Visibility: 10 or more miles (16+ km)
Ceiling: 1500 feet AGL
Clouds: broken clouds at 1500 feet AGL
Present Weather: no significant weather observed at this time
KPIE 291334Z 12014G24KT 10SM BKN015 27/22 A3012 RMK AO2 T02720222

Conditions at: KPIE observed 29 April 2017  12:53 UTC
Temperature: 26.1°C (79°F)
Dewpoint: 22.2°C (72°F) [RH = 79%]
Pressure (altimeter): 30.12 inches Hg (1020.1 mb)
[Sea-level pressure: 1019.8 mb]
Winds: from the SE (130 degrees) at 15 MPH (13 knots; 6.8 m/s)
gusting to 25 MPH (22 knots; 11.4 m/s)
Visibility: 10 or more miles (16+ km)
Ceiling: 1200 feet AGL
Clouds: broken clouds at 1200 feet AGL
Present Weather:
SOME DATA ABOVE MAY BE INACCURATE!!!
"$" is an indication the sensor requires maintenance
KPIE 291253Z 13013G22KT 10SM BKN012 26/22 A3012 RMK AO2 SLP198 T02610222 $

Conditions at: KPIE observed 29 April 2017  11:53 UTC
Temperature: 25.0°C (77°F)
Dewpoint: 22.2°C (72°F) [RH = 84%]
Pressure (altimeter): 30.12 inches Hg (1020.1 mb)
[Sea-level pressure: 1019.9 mb]
Winds: from the ESE (120 degrees) at 13 MPH (11 knots; 5.7 m/s)
Visibility: 10 or more miles (16+ km)
Ceiling: 1200 feet AGL
Clouds: broken clouds at 1200 feet AGL
Present Weather:
SOME DATA ABOVE MAY BE INACCURATE!!!
"$" is an indication the sensor requires maintenance
KPIE 291153Z 12011KT 10SM BKN012 25/22 A3012 RMK AO2 SLP199 T02500222 10256 20239 53015 $

Conditions at: KPIE observed 29 April 2017  10:53 UTC
Temperature: 23.9°C (75°F)
Dewpoint: 21.7°C (71°F) [RH = 88%]
Pressure (altimeter): 30.10 inches Hg (1019.4 mb)
[Sea-level pressure: 1019.1 mb]
Winds: from the ESE (120 degrees) at 14 MPH (12 knots; 6.2 m/s)
Visibility: 10 or more miles (16+ km)
Ceiling: 1300 feet AGL
Clouds: overcast cloud deck at 1300 feet AGL
Present Weather:
SOME DATA ABOVE MAY BE INACCURATE!!!
"$" is an indication the sensor requires maintenance
KPIE 291053Z 12012KT 10SM OVC013 24/22 A3010 RMK AO2 SLP191 T02390217 $

Conditions at: KPIE observed 29 April 2017  09:53 UTC
Temperature: 23.9°C (75°F)
Dewpoint: 21.7°C (71°F) [RH = 88%]
Pressure (altimeter): 30.08 inches Hg (1018.7 mb)
[Sea-level pressure: 1018.6 mb]
Winds: from the ESE (120 degrees) at 12 MPH (10 knots; 5.2 m/s)
Visibility: 10 or more miles (16+ km)
Ceiling: 1400 feet AGL
Clouds: broken clouds at 1400 feet AGL
Present Weather: no significant weather observed at this time
KPIE 290953Z 12010KT 10SM BKN014 24/22 A3008 RMK AO2 SLP186 T02390217

Conditions at: KPIE observed 29 April 2017  09:37 UTC
Temperature: 23.9°C (75°F)
Dewpoint: 21.7°C (71°F) [RH = 88%]
Pressure (altimeter): 30.08 inches Hg (1018.7 mb)
Winds: from the ESE (120 degrees) at 12 MPH (10 knots; 5.2 m/s)
Visibility: 10 or more miles (16+ km)
Ceiling: at least 12,000 feet AGL
Clouds: scattered clouds at 1200 feet AGL
Present Weather: automated observation with no human augmentation;
there may or may not be significant weather present at this time
KPIE 290937Z AUTO 12010KT 10SM SCT012 24/22 A3008 RMK AO2 T02390217

Conditions at: KPIE observed 29 April 2017  08:53 UTC
Temperature: 24.4°C (76°F)
Dewpoint: 22.2°C (72°F) [RH = 88%]
Pressure (altimeter): 30.08 inches Hg (1018.7 mb)
[Sea-level pressure: 1018.4 mb]
Winds: from the SE (130 degrees) at 16 MPH (14 knots; 7.3 m/s)
gusting to 23 MPH (20 knots; 10.4 m/s)
Visibility: 10 or more miles (16+ km)
Ceiling: 1300 feet AGL
Clouds: broken clouds at 1300 feet AGL
Present Weather: automated observation with no human augmentation;
there may or may not be significant weather present at this time
KPIE 290853Z AUTO 13014G20KT 10SM BKN013 24/22 A3008 RMK AO2 SLP184 T02440222 56006

Conditions at: KPIE observed 29 April 2017  08:22 UTC
Temperature: 24.4°C (76°F)
Dewpoint: 21.7°C (71°F) [RH = 85%]
Pressure (altimeter): 30.08 inches Hg (1018.7 mb)
Winds: from the ESE (120 degrees) at 10 MPH (9 knots; 4.7 m/s)
Visibility: 10 or more miles (16+ km)
Ceiling: 1400 feet AGL
Clouds: broken clouds at 1400 feet AGL
Present Weather: automated observation with no human augmentation;
there may or may not be significant weather present at this time
KPIE 290822Z AUTO 12009KT 10SM BKN014 24/22 A3008 RMK AO2 T02440217

Conditions at: KPIE observed 29 April 2017  07:53 UTC
Temperature: 24.4°C (76°F)
Dewpoint: 21.7°C (71°F) [RH = 85%]
Pressure (altimeter): 30.08 inches Hg (1018.7 mb)
[Sea-level pressure: 1018.5 mb]
Winds: from the ESE (120 degrees) at 10 MPH (9 knots; 4.7 m/s)
Visibility: 10 or more miles (16+ km)
Ceiling: at least 12,000 feet AGL
Clouds: few clouds at 1400 feet AGL
Present Weather: automated observation with no human augmentation;
there may or may not be significant weather present at this time
KPIE 290753Z AUTO 12009KT 10SM FEW014 24/22 A3008 RMK AO2 SLP185 T02440217

Conditions at: KPIE observed 29 April 2017  06:53 UTC
Temperature: 24.4°C (76°F)
Dewpoint: 21.7°C (71°F) [RH = 85%]
Pressure (altimeter): 30.09 inches Hg (1019.0 mb)
[Sea-level pressure: 1018.7 mb]
Winds: from the SE (130 degrees) at 13 MPH (11 knots; 5.7 m/s)
Visibility: 10 or more miles (16+ km)
Ceiling: at least 12,000 feet AGL
Clouds: sky clear below 12,000 feet AGL
Present Weather: automated observation with no human augmentation;
there may or may not be significant weather present at this time
KPIE 290653Z AUTO 13011KT 10SM CLR 24/22 A3009 RMK AO2 SLP187 T02440217

Conditions at: KPIE observed 29 April 2017  05:53 UTC
Temperature: 25.0°C (77°F)
Dewpoint: 21.1°C (70°F) [RH = 79%]
Pressure (altimeter): 30.09 inches Hg (1019.0 mb)
[Sea-level pressure: 1019.0 mb]
Winds: from the ESE (120 degrees) at 14 MPH (12 knots; 6.2 m/s)
Visibility: 10 or more miles (16+ km)
Ceiling: at least 12,000 feet AGL
Clouds: sky clear below 12,000 feet AGL
Present Weather: automated observation with no human augmentation;
there may or may not be significant weather present at this time
KPIE 290553Z AUTO 12012KT 10SM CLR 25/21 A3009 RMK AO2 SLP190 T02500211 10289 20250 51002

Conditions at: KPIE observed 29 April 2017  04:53 UTC
Temperature: 26.1°C (79°F)
Dewpoint: 20.6°C (69°F) [RH = 72%]
Pressure (altimeter): 30.09 inches Hg (1019.0 mb)
[Sea-level pressure: 1019.0 mb]
Winds: from the SE (140 degrees) at 15 MPH (13 knots; 6.8 m/s)
gusting to 24 MPH (21 knots; 10.9 m/s)
Visibility: 10 or more miles (16+ km)
Ceiling: at least 12,000 feet AGL
Clouds: sky clear below 12,000 feet AGL
Present Weather: automated observation with no human augmentation;
there may or may not be significant weather present at this time
KPIE 290453Z AUTO 14013G21KT 10SM CLR 26/21 A3009 RMK AO2 SLP190 T02610206 403440217

Conditions at: KPIE observed 29 April 2017  03:53 UTC
Temperature: 27.2°C (81°F)
Dewpoint: 20.6°C (69°F) [RH = 67%]
Pressure (altimeter): 30.09 inches Hg (1019.0 mb)
[Sea-level pressure: 1019.0 mb]
Winds: from the SE (130 degrees) at 12 MPH (10 knots; 5.2 m/s)
Visibility: 10 or more miles (16+ km)
Ceiling: 5500 feet AGL
Clouds: broken clouds at 5500 feet AGL
Present Weather: automated observation with no human augmentation;
there may or may not be significant weather present at this time
KPIE 290353Z AUTO 13010KT 10SM BKN055 27/21 A3009 RMK AO2 SLP190 T02720206

Conditions at: KPIE observed 29 April 2017  02:53 UTC
Temperature: 26.1°C (79°F)
Dewpoint: 21.7°C (71°F) [RH = 77%]
Pressure (altimeter): 30.09 inches Hg (1019.0 mb)
[Sea-level pressure: 1018.8 mb]
Winds: from the ESE (120 degrees) at 6 MPH (5 knots; 2.6 m/s)
Visibility: 10 or more miles (16+ km)
Ceiling: at least 12,000 feet AGL
Clouds: sky clear below 12,000 feet AGL
Present Weather: no significant weather observed at this time
KPIE 290253Z 12005KT 10SM CLR 26/22 A3009 RMK AO2 SLP188 T02610217 51024

Conditions at: KPIE observed 29 April 2017  01:53 UTC
Temperature: 26.1°C (79°F)
Dewpoint: 21.7°C (71°F) [RH = 77%]
Pressure (altimeter): 30.07 inches Hg (1018.4 mb)
[Sea-level pressure: 1018.2 mb]
Winds: calm
Visibility: 10 or more miles (16+ km)
Ceiling: at least 12,000 feet AGL
Clouds: sky clear below 12,000 feet AGL
Present Weather: no significant weather observed at this time
KPIE 290153Z 00000KT 10SM CLR 26/22 A3007 RMK AO2 SLP182 T02610217

Conditions at: KPIE observed 29 April 2017  00:53 UTC
Temperature: 27.2°C (81°F)
Dewpoint: 21.7°C (71°F) [RH = 72%]
Pressure (altimeter): 30.04 inches Hg (1017.4 mb)
[Sea-level pressure: 1017.2 mb]
Winds: from the SSW (200 degrees) at 5 MPH (4 knots; 2.1 m/s)
Visibility: 10 or more miles (16+ km)
Ceiling: at least 12,000 feet AGL
Clouds: sky clear below 12,000 feet AGL
Present Weather: no significant weather observed at this time
KPIE 290053Z 20004KT 10SM CLR 27/22 A3004 RMK AO2 SLP172 T02720217

Conditions at: KPIE observed 28 April 2017  23:53 UTC
Temperature: 28.9°C (84°F)
Dewpoint: 21.1°C (70°F) [RH = 63%]
Pressure (altimeter): 30.02 inches Hg (1016.7 mb)
[Sea-level pressure: 1016.4 mb]
Winds: from the SSW (210 degrees) at 8 MPH (7 knots; 3.6 m/s)
Visibility: 10 or more miles (16+ km)
Ceiling: at least 12,000 feet AGL
Clouds: sky clear below 12,000 feet AGL
Present Weather: no significant weather observed at this time
KPIE 282353Z 21007KT 10SM CLR 29/21 A3002 RMK AO2 SLP164 T02890211 10344 20289 53006

Conditions at: KPIE observed 28 April 2017  22:53 UTC
Temperature: 30.0°C (86°F)
Dewpoint: 20.6°C (69°F) [RH = 57%]
Pressure (altimeter): 30.01 inches Hg (1016.3 mb)
[Sea-level pressure: 1016.0 mb]
Winds: from the SSW (210 degrees) at 12 MPH (10 knots; 5.2 m/s)
Visibility: 10 or more miles (16+ km)
Ceiling: at least 12,000 feet AGL
Clouds: sky clear below 12,000 feet AGL
Present Weather: no significant weather observed at this time
KPIE 282253Z 21010KT 10SM CLR 30/21 A3001 RMK AO2 SLP160 T03000206

Conditions at: KPIE observed 28 April 2017  21:53 UTC
Temperature: 31.7°C (89°F)
Dewpoint: 20.6°C (69°F) [RH = 52%]
Pressure (altimeter): 30.00 inches Hg (1016.0 mb)
[Sea-level pressure: 1015.9 mb]
Winds: from the SW (230 degrees) at 12 MPH (10 knots; 5.2 m/s)
Visibility: 10 or more miles (16+ km)
Ceiling: at least 12,000 feet AGL
Clouds: sky clear below 12,000 feet AGL
Present Weather: no significant weather observed at this time
KPIE 282153Z 23010KT 10SM CLR 32/21 A3000 RMK AO2 SLP159 T03170206

Conditions at: KPIE observed 28 April 2017  20:53 UTC
Temperature: 32.8°C (91°F)
Dewpoint: 20.6°C (69°F) [RH = 49%]
Pressure (altimeter): 30.00 inches Hg (1016.0 mb)
[Sea-level pressure: 1015.7 mb]
Winds: from the SW (230 degrees) at 10 MPH (9 knots; 4.7 m/s)
Visibility: 10 or more miles (16+ km)
Ceiling: at least 12,000 feet AGL
Clouds: sky clear below 12,000 feet AGL
Present Weather: no significant weather observed at this time
KPIE 282053Z 23009KT 10SM CLR 33/21 A3000 RMK AO2 SLP157 T03280206 56017

Conditions at: KPIE observed 28 April 2017  19:53 UTC
Temperature: 33.3°C (92°F)
Dewpoint: 21.1°C (70°F) [RH = 49%]
Pressure (altimeter): 30.01 inches Hg (1016.3 mb)
[Sea-level pressure: 1016.2 mb]
Winds: from the WSW (240 degrees) at 9 MPH (8 knots; 4.2 m/s)
Visibility: 10 or more miles (16+ km)
Ceiling: at least 12,000 feet AGL
Clouds: few clouds at 5000 feet AGL
Present Weather: no significant weather observed at this time
KPIE 281953Z 24008KT 210V270 10SM FEW050 33/21 A3001 RMK AO2 SLP162 T03330211

Conditions at: KPIE observed 28 April 2017  18:53 UTC
Temperature: 32.8°C (91°F)
Dewpoint: 21.1°C (70°F) [RH = 50%]
Pressure (altimeter): 30.03 inches Hg (1017.0 mb)
[Sea-level pressure: 1016.7 mb]
Winds: from the E (90 degrees) at 7 MPH (6 knots; 3.1 m/s)
Visibility: 10 or more miles (16+ km)
Ceiling: at least 12,000 feet AGL
Clouds: sky clear below 12,000 feet AGL
Present Weather: no significant weather observed at this time
KPIE 281853Z COR 09006KT 10SM CLR 33/21 A3003 RMK AO2 SLP167 T03280211

Conditions at: KPIE observed 28 April 2017  17:53 UTC
Temperature: 33.3°C (92°F)
Dewpoint: 20.0°C (68°F) [RH = 46%]
Pressure (altimeter): 30.05 inches Hg (1017.7 mb)
[Sea-level pressure: 1017.4 mb]
Winds: from the SE (130 degrees) at 10 MPH (9 knots; 4.7 m/s)
gusting to 16 MPH (14 knots; 7.3 m/s)
Visibility: 10 or more miles (16+ km)
Ceiling: at least 12,000 feet AGL
Clouds: sky clear below 12,000 feet AGL
Present Weather: no significant weather observed at this time
KPIE 281753Z 13009G14KT 10SM CLR 33/20 A3005 RMK AO2 SLP174 T03330200 10333 20233 58008

Conditions at: KPIE observed 28 April 2017  16:53 UTC
Temperature: 31.1°C (88°F)
Dewpoint: 21.1°C (70°F) [RH = 55%]
Pressure (altimeter): 30.06 inches Hg (1018.0 mb)
[Sea-level pressure: 1017.8 mb]
Winds: from the S (180 degrees) at 9 MPH (8 knots; 4.2 m/s)
Visibility: 10 or more miles (16+ km)
Ceiling: at least 12,000 feet AGL
Clouds: sky clear below 12,000 feet AGL
Present Weather: no significant weather observed at this time
KPIE 281653Z 18008KT 10SM CLR 31/21 A3006 RMK AO2 SLP178 T03110211

Conditions at: KPIE observed 28 April 2017  15:53 UTC
Temperature: 30.0°C (86°F)
Dewpoint: 22.2°C (72°F) [RH = 63%]
Pressure (altimeter): 30.07 inches Hg (1018.4 mb)
[Sea-level pressure: 1018.1 mb]
Winds: from the SE (130 degrees) at 13 MPH (11 knots; 5.7 m/s)
Visibility: 10 or more miles (16+ km)
Ceiling: at least 12,000 feet AGL
Clouds: few clouds at 2100 feet AGL
Present Weather: no significant weather observed at this time
KPIE 281553Z 13011KT 10SM FEW021 30/22 A3007 RMK AO2 SLP181 T03000222